Amberes, Argentina
Current Conditions -  °F | °C
As of 7:00 PM on Sunday 23 Nov 2014 (Local Time) from SLYA Reporting Station
Broken Clouds Broken Clouds  
Wind Chill: 73°   Ceiling: 2500
Heat Index: 73°   Visibility: 6mi
Dew Point: 64°   Wind: 14mph
Humidity: 73%   Direction: 50°NE
Pressure: 29.83"   Gusts: NA
Location:  22.52°S, 62.53°W
Report Text: SLYA 232200Z 05012KT 9999 BKN025 BKN200 23/18 Q1010
Loading
Personal Weather Stations






























Interactive Weather Map New forecast layout! Learn more

10-Day Weather Forecast

Advertisements
Track Severe Weather on mobile